Alt de Santa Isabel, Puerto Rico
Current Conditions -  °F | °C
As of 5:56 PM on Thursday 27 Nov 2014 (Local Time) from TJSJ Reporting Station
Scattered Clouds Scattered Clouds  
Wind Chill: 80°   Ceiling: Unl
Heat Index: 84°   Visibility: 10mi
Dew Point: 72°   Wind: 8mph
Humidity: 76%   Direction: 70°ENE
Pressure: 29.94"   Gusts: NA
Location:  17.9676°N, 66.4046°W
Report Text: TJSJ 272156Z 07007KT 10SM FEW032 SCT070 27/22 A2994 RMK AO2 SLP136 SHRA DSNT S SW T02670222
Loading
Personal Weather Stations






























Interactive Weather Map New forecast layout! Learn more

10-Day Weather Forecast

Advertisements
Track Severe Weather on mobile